createdAt,value
2022-12-03T00:02:50.608Z,14.07
2022-12-03T00:07:53.183Z,14.73
2022-12-03T00:12:55.764Z,16.63
2022-12-03T00:17:58.228Z,19.02
2022-12-03T00:23:00.714Z,13.02
2022-12-03T00:28:03.233Z,14.57
2022-12-03T00:33:05.797Z,13.40
2022-12-03T00:38:08.296Z,17.23
2022-12-03T00:43:10.859Z,14.45
2022-12-03T00:48:13.595Z,13.30
2022-12-03T00:53:16.104Z,15.48
2022-12-03T00:58:18.965Z,15.45
2022-12-03T01:03:21.416Z,17.88
2022-12-03T01:08:24.253Z,14.25
2022-12-03T01:13:46.972Z,16.30
2022-12-03T01:18:52.304Z,17.50
2022-12-03T01:23:54.965Z,19.33
2022-12-03T01:28:57.461Z,17.08
2022-12-03T01:33:59.949Z,19.75
2022-12-03T01:39:04.572Z,13.70
2022-12-03T01:49:25.067Z,19.45
2022-12-03T01:54:38.474Z,16.05
2022-12-03T01:59:40.941Z,15.70
2022-12-03T02:04:43.702Z,15.32
2022-12-03T02:09:46.300Z,17.02
2022-12-03T02:14:49.122Z,15.67
2022-12-03T02:19:52.470Z,12.65
2022-12-03T02:25:14.371Z,16.92
2022-12-03T02:30:21.906Z,12.25
2022-12-03T02:35:28.849Z,12.97
2022-12-03T02:40:33.420Z,13.70
2022-12-03T02:51:05.894Z,12.02
2022-12-03T02:56:09.041Z,18.17
2022-12-03T03:01:11.693Z,17.58
2022-12-03T03:06:18.387Z,14.40
2022-12-03T03:11:20.882Z,11.77
2022-12-03T03:16:23.357Z,14.73
2022-12-03T03:21:25.892Z,17.08
2022-12-03T03:26:28.467Z,18.10
2022-12-03T03:31:31.102Z,14.53
2022-12-03T03:36:33.911Z,15.07
2022-12-03T03:41:36.896Z,16.45
2022-12-03T03:46:39.926Z,18.58
2022-12-03T03:51:42.657Z,14.27
2022-12-03T03:56:45.586Z,13.83
2022-12-03T04:01:49.344Z,16.13
2022-12-03T04:06:52.281Z,16.10
2022-12-03T04:12:13.375Z,14.73
2022-12-03T04:17:15.854Z,15.27
2022-12-03T04:22:37.533Z,16.73
2022-12-03T04:28:00.036Z,16.20
2022-12-03T04:33:21.195Z,18.20
2022-12-03T04:38:23.729Z,13.00
2022-12-03T04:43:29.892Z,15.07
2022-12-03T04:48:32.379Z,16.77
2022-12-03T04:53:36.344Z,18.05
2022-12-03T04:58:38.883Z,15.77
2022-12-03T05:03:41.430Z,16.67
2022-12-03T05:08:43.844Z,18.38
2022-12-03T05:13:46.320Z,18.27
2022-12-03T05:18:48.832Z,19.92
2022-12-03T05:23:51.552Z,24.08
2022-12-03T05:28:54.099Z,21.38
2022-12-03T05:33:56.594Z,22.63
2022-12-03T05:38:59.022Z,16.63
2022-12-03T05:44:01.545Z,16.60
2022-12-03T05:49:04.075Z,18.35
2022-12-03T05:54:06.614Z,17.33
2022-12-03T05:59:09.293Z,17.98
2022-12-03T06:04:11.914Z,16.65
2022-12-03T06:09:14.423Z,18.33
2022-12-03T06:14:16.822Z,22.38
2022-12-03T06:19:19.365Z,19.60
2022-12-03T06:24:21.875Z,19.90
2022-12-03T06:29:24.359Z,22.77
2022-12-03T06:34:26.812Z,23.33
2022-12-03T06:39:29.391Z,31.83
2022-12-03T06:44:31.854Z,24.05
2022-12-03T06:49:34.793Z,18.63
2022-12-03T06:54:37.293Z,27.73
2022-12-03T06:59:39.810Z,21.33
2022-12-03T07:04:52.541Z,25.88
2022-12-03T07:09:55.192Z,23.83
2022-12-03T07:14:57.641Z,28.83
2022-12-03T07:20:00.113Z,18.33
2022-12-03T07:25:02.977Z,23.20
2022-12-03T07:30:07.957Z,25.23
2022-12-03T07:35:10.762Z,27.83
2022-12-03T07:40:13.950Z,27.58
2022-12-03T07:45:16.624Z,55.42
2022-12-03T07:50:19.083Z,88.20
2022-12-03T07:55:21.909Z,29.40
2022-12-03T08:00:24.634Z,20.77
2022-12-03T08:05:27.466Z,24.33
2022-12-03T08:10:29.948Z,23.73
2022-12-03T08:15:37.226Z,25.92
2022-12-03T08:20:43.949Z,26.95
2022-12-03T08:25:47.621Z,21.65
2022-12-03T08:31:27.954Z,24.07
2022-12-03T08:36:36.493Z,19.80
2022-12-03T08:41:57.661Z,21.77
2022-12-03T08:47:21.430Z,19.23
2022-12-03T08:52:32.077Z,20.40
2022-12-03T08:57:36.227Z,18.98
2022-12-03T09:02:43.793Z,20.42
2022-12-03T09:07:46.248Z,19.48
2022-12-03T09:12:48.786Z,19.83
2022-12-03T09:17:51.268Z,20.88
2022-12-03T09:22:53.800Z,28.35
2022-12-03T09:27:56.322Z,17.55
2022-12-03T09:33:00.136Z,30.73
2022-12-03T09:38:02.616Z,70.37
2022-12-03T09:43:05.918Z,100.88
2022-12-03T09:48:08.476Z,47.10
2022-12-03T09:53:19.983Z,20.08
2022-12-03T09:58:23.517Z,22.13
2022-12-03T10:03:30.547Z,18.02
2022-12-03T10:08:33.530Z,19.60
2022-12-03T10:13:37.337Z,17.35
2022-12-03T10:18:47.578Z,21.95
2022-12-03T10:23:55.111Z,23.45
2022-12-03T10:28:58.048Z,21.80
2022-12-03T10:34:00.500Z,26.15
2022-12-03T10:39:08.220Z,16.65
2022-12-03T10:44:20.522Z,17.65
2022-12-03T10:49:23.082Z,18.05
2022-12-03T10:54:28.704Z,18.05
2022-12-03T10:59:33.564Z,17.40
2022-12-03T11:04:37.354Z,25.48
2022-12-03T11:09:42.845Z,16.00
2022-12-03T11:14:52.268Z,16.73
2022-12-03T11:19:55.067Z,15.68
2022-12-03T11:25:25.311Z,23.70
2022-12-03T11:30:50.052Z,17.17
2022-12-03T11:36:06.153Z,18.00
2022-12-03T11:41:22.545Z,18.95
2022-12-03T11:46:40.608Z,24.15
2022-12-03T11:51:45.196Z,17.92
2022-12-03T11:56:49.538Z,21.45
2022-12-03T12:01:52.137Z,25.52
2022-12-03T12:06:54.565Z,31.48
2022-12-03T12:12:16.981Z,31.13
2022-12-03T12:17:36.534Z,23.23
2022-12-03T12:22:39.412Z,25.52
2022-12-03T12:27:51.027Z,30.15
2022-12-03T12:33:19.858Z,26.55
2022-12-03T12:38:24.286Z,20.60
2022-12-03T12:43:30.872Z,32.13
2022-12-03T12:48:35.638Z,23.75
2022-12-03T12:58:42.788Z,28.33
2022-12-03T13:03:45.324Z,23.90
2022-12-03T13:08:50.360Z,27.00
2022-12-03T13:13:52.958Z,28.85
2022-12-03T13:19:00.119Z,27.17
2022-12-03T13:24:03.133Z,28.25
2022-12-03T13:29:18.379Z,25.45
2022-12-03T13:34:27.342Z,31.63
2022-12-03T13:39:38.228Z,20.02
2022-12-03T13:44:49.415Z,22.95
2022-12-03T13:49:56.857Z,20.35
2022-12-03T13:55:02.255Z,22.77
2022-12-03T14:00:05.784Z,23.40
2022-12-03T14:05:15.332Z,19.48
2022-12-03T14:10:18.052Z,16.63
2022-12-03T14:15:21.532Z,28.55
2022-12-03T14:20:24.158Z,31.27
2022-12-03T14:25:28.026Z,24.80
2022-12-03T14:30:32.736Z,38.93
2022-12-03T14:40:37.636Z,34.90
2022-12-03T14:45:40.147Z,31.75
2022-12-03T14:50:42.633Z,33.88
2022-12-03T14:55:45.654Z,28.33
2022-12-03T15:00:48.125Z,25.23
2022-12-03T15:05:50.805Z,23.00
2022-12-03T15:10:53.332Z,23.00
2022-12-03T15:15:55.853Z,40.15
2022-12-03T15:20:58.610Z,28.75
2022-12-03T15:26:01.094Z,25.30
2022-12-03T15:31:03.741Z,34.03
2022-12-03T15:36:06.730Z,27.30
2022-12-03T15:41:21.735Z,27.95
2022-12-03T15:46:24.735Z,29.48
2022-12-03T15:51:28.894Z,27.65
2022-12-03T15:56:32.990Z,33.10
2022-12-03T16:01:36.682Z,26.65
2022-12-03T16:06:39.426Z,33.72
2022-12-03T16:11:41.963Z,29.40
2022-12-03T16:16:44.414Z,26.50
2022-12-03T16:21:47.185Z,21.92
2022-12-03T16:26:49.612Z,30.30
2022-12-03T16:31:52.111Z,23.90
2022-12-03T16:36:54.639Z,28.88
2022-12-03T16:41:57.165Z,29.58
2022-12-03T16:47:02.590Z,33.90
2022-12-03T16:52:05.239Z,37.47
2022-12-03T16:57:07.826Z,45.70
2022-12-03T17:02:11.687Z,33.83
2022-12-03T17:07:14.294Z,29.45
2022-12-03T17:12:16.835Z,27.73
2022-12-03T17:17:19.340Z,29.27
2022-12-03T17:22:21.867Z,27.90
2022-12-03T17:27:25.210Z,26.37
2022-12-03T17:32:27.682Z,25.77
2022-12-03T17:37:30.150Z,26.40
2022-12-03T17:42:32.633Z,38.30
2022-12-03T17:47:35.080Z,27.95
2022-12-03T17:52:37.536Z,27.92
2022-12-03T17:57:40.084Z,48.67
2022-12-03T18:02:42.915Z,24.23
2022-12-03T18:07:45.777Z,23.80
2022-12-03T18:12:48.612Z,24.38
2022-12-03T18:17:51.872Z,28.52
2022-12-03T18:22:54.384Z,32.40
2022-12-03T18:27:57.695Z,36.58
2022-12-03T18:33:00.158Z,39.70
2022-12-03T18:38:02.736Z,30.43
2022-12-03T18:43:12.089Z,23.90
2022-12-03T18:48:18.347Z,27.10
2022-12-03T18:53:20.822Z,25.00
2022-12-03T18:58:23.328Z,28.37
2022-12-03T19:03:26.037Z,29.83
2022-12-03T19:08:28.920Z,23.25
2022-12-03T19:13:31.394Z,22.07
2022-12-03T19:18:34.073Z,20.53
2022-12-03T19:23:37.541Z,32.37
2022-12-03T19:28:41.143Z,28.57
2022-12-03T19:33:44.022Z,26.30
2022-12-03T19:38:55.071Z,32.15
2022-12-03T19:43:59.494Z,29.33
2022-12-03T19:49:02.821Z,42.88
2022-12-03T19:54:07.952Z,32.60
2022-12-03T19:59:13.720Z,35.22
2022-12-03T20:04:16.279Z,37.10
2022-12-03T20:09:20.683Z,35.20
2022-12-03T20:14:23.326Z,42.63
2022-12-03T20:19:25.828Z,39.47
2022-12-03T20:24:28.357Z,35.83
2022-12-03T20:29:30.889Z,41.80
2022-12-03T20:34:35.916Z,30.63
2022-12-03T20:39:38.578Z,29.37
2022-12-03T20:44:41.026Z,30.15
2022-12-03T20:49:43.498Z,29.88
2022-12-03T20:54:46.077Z,36.20
2022-12-03T20:59:48.580Z,36.60
2022-12-03T21:04:51.004Z,35.70
2022-12-03T21:09:54.103Z,35.65
2022-12-03T21:14:57.077Z,31.45
2022-12-03T21:19:59.548Z,22.40
2022-12-03T21:25:02.062Z,31.23
2022-12-03T21:30:05.283Z,31.08
2022-12-03T21:35:08.135Z,23.75
2022-12-03T21:40:11.133Z,23.90
2022-12-03T21:45:14.547Z,42.30
2022-12-03T21:50:17.072Z,23.17
2022-12-03T21:55:19.525Z,32.38
2022-12-03T22:00:22.638Z,22.85
2022-12-03T22:05:25.256Z,20.08
2022-12-03T22:10:27.974Z,32.55
2022-12-03T22:15:30.447Z,22.98
2022-12-03T22:20:32.928Z,24.80
2022-12-03T22:25:35.482Z,21.93
2022-12-03T22:30:40.328Z,22.00
2022-12-03T22:35:42.836Z,26.58
2022-12-03T22:40:46.104Z,23.52
2022-12-03T22:45:52.507Z,26.97
2022-12-03T22:50:55.099Z,22.70
2022-12-03T22:56:00.158Z,29.08
2022-12-03T23:01:03.298Z,22.50
2022-12-03T23:06:12.786Z,26.80
2022-12-03T23:11:16.452Z,29.70
2022-12-03T23:16:26.340Z,28.60
2022-12-03T23:21:32.715Z,24.48
2022-12-03T23:26:37.900Z,27.83
2022-12-03T23:31:40.489Z,18.30
2022-12-03T23:36:42.976Z,25.25
2022-12-03T23:41:45.424Z,21.60
2022-12-03T23:46:47.990Z,20.58
2022-12-03T23:51:50.638Z,29.38
2022-12-03T23:56:53.164Z,25.70
